Time;durP1;ratioP1;P1;durP2;ratioP2;P2;SDS_P1;SDS_P2;PMS_P1;PMS_P2;Temp;Humidity;BMP_temperature;BMP_pressure;BME280_temperature;BME280_humidity;BME280_pressure;Samples;Min_cycle;Max_cycle;Signal;HPM_P1;HPM_P2
2022/08/04 00:00:06;;;;;;;22.20;15.77;;;22.20;99.90;;;;;;5052593;28;20575;-74
2022/08/04 00:02:47;;;;;;;21.77;16.93;;;22.20;99.90;;;;;;5053866;28;20456;-73
2022/08/04 00:05:25;;;;;;;22.90;15.70;;;22.20;99.90;;;;;;5050962;28;20931;-73
2022/08/04 00:08:01;;;;;;;25.20;16.20;;;22.20;99.90;;;;;;5074287;28;20458;-75
2022/08/04 00:10:28;;;;;;;24.33;16.60;;;22.20;99.90;;;;;;5056474;28;20543;-74
2022/08/04 00:13:00;;;;;;;22.10;15.50;;;22.20;99.90;;;;;;5073412;28;20437;-73
2022/08/04 00:15:29;;;;;;;21.10;15.97;;;22.20;99.90;;;;;;5066292;28;20479;-75
2022/08/04 00:18:00;;;;;;;24.50;16.50;;;22.20;99.90;;;;;;5072280;28;20464;-75
2022/08/04 00:20:31;;;;;;;22.50;14.70;;;22.20;99.90;;;;;;5060110;28;20503;-74
2022/08/04 00:22:59;;;;;;;23.30;15.33;;;22.20;99.90;;;;;;5063949;28;20450;-73
2022/08/04 00:25:26;;;;;;;23.87;16.07;;;22.20;99.90;;;;;;5072997;28;20783;-73
2022/08/04 00:27:54;;;;;;;25.97;15.57;;;22.20;99.90;;;;;;5066661;28;20441;-74
2022/08/04 00:30:23;;;;;;;18.97;14.37;;;22.10;99.90;;;;;;5073778;28;20447;-75
2022/08/04 00:32:51;;;;;;;21.47;14.73;;;22.20;99.90;;;;;;5087343;28;20447;-73
2022/08/04 00:35:18;;;;;;;20.93;15.43;;;22.20;99.90;;;;;;5075651;28;20555;-74
2022/08/04 00:37:45;;;;;;;24.13;17.20;;;22.20;99.90;;;;;;5071528;28;20475;-73
2022/08/04 00:40:23;;;;;;;20.33;14.33;;;22.20;99.90;;;;;;5073620;28;20460;-73
2022/08/04 00:43:02;;;;;;;21.10;15.67;;;22.20;99.90;;;;;;5069235;28;20456;-74
2022/08/04 00:46:12;;;;;;;19.17;14.40;;;22.10;99.90;;;;;;5047013;28;20976;-74
2022/08/04 00:48:56;;;;;;;20.10;13.47;;;22.10;99.90;;;;;;5059815;28;20444;-74
2022/08/04 00:51:34;;;;;;;20.90;14.23;;;22.10;99.90;;;;;;5059639;28;20437;-74
2022/08/04 00:54:12;;;;;;;22.27;15.30;;;22.10;99.90;;;;;;5040349;28;20488;-74
2022/08/04 00:57:10;;;;;;;16.37;13.83;;;22.20;99.90;;;;;;5055171;28;21012;-73
2022/08/04 00:59:51;;;;;;;25.33;15.97;;;22.20;99.90;;;;;;5052173;28;20451;-74
2022/08/04 01:02:29;;;;;;;15.03;13.17;;;22.10;99.90;;;;;;5071948;28;20459;-73
2022/08/04 01:05:04;;;;;;;22.90;14.23;;;22.10;99.90;;;;;;5037979;28;20489;-73
2022/08/04 01:07:59;;;;;;;25.30;16.40;;;22.10;99.90;;;;;;5056972;28;20797;-73
2022/08/04 01:10:36;;;;;;;30.10;17.90;;;22.00;99.90;;;;;;5062589;28;20456;-73
2022/08/04 01:13:24;;;;;;;26.57;15.73;;;21.90;99.90;;;;;;5051902;28;20499;-74
2022/08/04 01:15:58;;;;;;;25.60;16.43;;;21.80;99.90;;;;;;5052795;28;20481;-76
2022/08/04 01:18:35;;;;;;;18.07;15.83;;;21.80;99.90;;;;;;5051098;28;20457;-76
2022/08/04 01:21:52;;;;;;;25.07;17.17;;;21.70;99.90;;;;;;5067070;28;20536;-76
2022/08/04 01:24:29;;;;;;;25.50;17.40;;;21.70;99.90;;;;;;5055149;28;20879;-75
2022/08/04 01:27:02;;;;;;;22.90;14.67;;;21.70;99.90;;;;;;5073438;28;20450;-75
2022/08/04 01:29:34;;;;;;;22.90;15.17;;;21.70;99.90;;;;;;5072319;28;20444;-76
2022/08/04 01:32:04;;;;;;;17.50;15.23;;;21.70;99.90;;;;;;5067103;28;20943;-75
2022/08/04 01:34:36;;;;;;;23.00;17.13;;;21.70;99.90;;;;;;5058805;28;20464;-75
2022/08/04 01:37:17;;;;;;;21.80;15.67;;;21.70;99.90;;;;;;5062641;28;20570;-75
2022/08/04 01:39:50;;;;;;;25.50;15.17;;;21.60;99.90;;;;;;5051402;28;20452;-75
2022/08/04 01:42:20;;;;;;;19.57;14.80;;;21.70;99.90;;;;;;5070941;28;20774;-75
2022/08/04 01:44:51;;;;;;;27.20;18.00;;;21.70;99.90;;;;;;5062796;28;20530;-74
2022/08/04 01:47:21;;;;;;;26.43;16.40;;;21.70;99.90;;;;;;5068497;28;20480;-74
2022/08/04 01:49:50;;;;;;;23.70;19.40;;;21.60;99.90;;;;;;5071290;28;21467;-74
2022/08/04 01:52:18;;;;;;;23.67;15.67;;;21.60;99.90;;;;;;5071745;28;20454;-75
2022/08/04 01:54:46;;;;;;;27.43;19.00;;;21.60;99.90;;;;;;5073486;28;20471;-75
2022/08/04 01:57:17;;;;;;;24.77;16.23;;;21.60;99.90;;;;;;5074312;28;20492;-75
2022/08/04 01:59:47;;;;;;;26.50;17.30;;;21.50;99.90;;;;;;5067881;28;20491;-74
2022/08/04 02:02:15;;;;;;;18.37;15.93;;;21.50;99.90;;;;;;5073431;28;20455;-75
2022/08/04 02:04:43;;;;;;;24.27;18.17;;;21.50;99.90;;;;;;5071315;28;20478;-75
2022/08/04 02:07:25;;;;;;;22.57;17.10;;;21.50;99.90;;;;;;5064735;28;20436;-73
2022/08/04 02:10:04;;;;;;;21.53;16.90;;;21.50;99.90;;;;;;5053998;28;20514;-74
2022/08/04 02:12:50;;;;;;;26.00;16.87;;;21.50;99.90;;;;;;5063209;28;20794;-76
2022/08/04 02:15:26;;;;;;;20.33;15.60;;;21.50;99.90;;;;;;5056209;28;20512;-74
2022/08/04 02:18:00;;;;;;;25.30;16.20;;;21.50;99.90;;;;;;5071469;28;20472;-75
2022/08/04 02:20:34;;;;;;;27.63;16.73;;;21.40;99.90;;;;;;5045336;28;20919;-75
2022/08/04 02:23:04;;;;;;;28.23;17.87;;;21.30;99.90;;;;;;5060893;28;20543;-75
2022/08/04 02:25:37;;;;;;;27.80;18.00;;;21.30;99.90;;;;;;5070937;28;20868;-74
2022/08/04 02:28:19;;;;;;;28.30;19.10;;;21.20;99.90;;;;;;5072835;28;20435;-75
2022/08/04 02:30:58;;;;;;;21.50;17.03;;;21.20;99.90;;;;;;5068430;28;20531;-75
2022/08/04 02:33:34;;;;;;;23.93;16.90;;;21.20;99.90;;;;;;5080988;23;20513;-80
2022/08/04 02:36:04;;;;;;;18.23;15.40;;;21.20;99.90;;;;;;5043314;28;20541;-81
2022/08/04 02:38:47;;;;;;;22.73;18.50;;;21.30;99.90;;;;;;5050558;28;20486;-80
2022/08/04 02:41:16;;;;;;;27.63;17.80;;;21.20;99.90;;;;;;5040689;28;20438;-81
2022/08/04 02:43:47;;;;;;;27.00;16.67;;;21.30;99.90;;;;;;5049275;28;20460;-80
2022/08/04 02:46:15;;;;;;;31.60;18.80;;;21.20;99.90;;;;;;5053464;28;20851;-79
2022/08/04 02:48:46;;;;;;;23.80;19.57;;;21.20;99.90;;;;;;5053234;28;20458;-80
2022/08/04 02:51:16;;;;;;;23.93;18.17;;;21.20;99.90;;;;;;5054896;28;20498;-80
2022/08/04 02:53:44;;;;;;;20.57;17.90;;;21.20;99.90;;;;;;5048340;28;20470;-80
2022/08/04 02:56:13;;;;;;;26.97;18.27;;;21.10;99.90;;;;;;5050455;28;20973;-81
2022/08/04 02:58:46;;;;;;;25.20;18.40;;;21.00;99.90;;;;;;5039337;28;20434;-80
2022/08/04 03:01:13;;;;;;;25.20;17.70;;;21.10;99.90;;;;;;5043787;28;20460;-79
2022/08/04 03:03:48;;;;;;;29.83;21.13;;;21.10;99.90;;;;;;5044929;28;20536;-82
2022/08/04 03:06:42;;;;;;;34.60;19.97;;;21.00;99.90;;;;;;5047055;28;20487;-81
2022/08/04 03:09:45;;;;;;;23.90;18.97;;;20.90;99.90;;;;;;5035650;28;20522;-82
2022/08/04 03:12:47;;;;;;;25.27;17.53;;;20.90;99.90;;;;;;5045698;28;20463;-80
2022/08/04 03:15:39;;;;;;;27.13;17.67;;;20.90;99.90;;;;;;5041542;28;21071;-81
2022/08/04 03:18:42;;;;;;;27.67;19.00;;;20.90;99.90;;;;;;5044768;28;20442;-81
2022/08/04 03:21:43;;;;;;;23.60;17.87;;;20.90;99.90;;;;;;5041874;28;20464;-79
2022/08/04 03:24:58;;;;;;;24.00;15.60;;;20.90;99.90;;;;;;5044879;28;20498;-81
2022/08/04 03:28:01;;;;;;;21.53;16.07;;;21.00;99.90;;;;;;5014092;28;20511;-81
2022/08/04 03:30:41;;;;;;;22.97;16.17;;;20.90;99.90;;;;;;5013173;28;20537;-82
2022/08/04 03:33:30;;;;;;;21.63;15.40;;;21.00;99.90;;;;;;5028247;28;20540;-81
2022/08/04 03:36:36;;;;;;;24.37;18.60;;;21.00;99.90;;;;;;5044367;28;20587;-81
2022/08/04 03:39:23;;;;;;;17.80;14.63;;;21.00;99.90;;;;;;5030692;28;20450;-81
2022/08/04 03:42:18;;;;;;;18.33;14.43;;;21.00;99.90;;;;;;5048544;28;20469;-81
2022/08/04 03:45:32;;;;;;;23.20;14.00;;;21.00;99.90;;;;;;5056028;28;20485;-81
2022/08/04 03:48:39;;;;;;;17.63;14.00;;;21.10;99.90;;;;;;5054852;28;20852;-81
2022/08/04 03:54:45;;;;;;;16.10;14.30;;;21.10;99.90;;;;;;5045996;28;20489;-82
2022/08/04 03:57:36;;;;;;;18.80;15.10;;;21.10;99.90;;;;;;5046057;28;20484;-80
2022/08/04 04:00:07;;;;;;;25.00;16.53;;;21.10;99.90;;;;;;5055315;28;20449;-81
2022/08/04 04:03:02;;;;;;;30.20;16.23;;;21.10;99.90;;;;;;5057677;28;20453;-81
2022/08/04 04:06:13;;;;;;;22.23;15.03;;;21.10;99.90;;;;;;5044512;28;20475;-80
2022/08/04 04:09:13;;;;;;;17.57;14.80;;;21.10;99.90;;;;;;5042690;28;20472;-81
2022/08/04 04:12:06;;;;;;;21.83;16.20;;;21.10;99.90;;;;;;5039017;28;20463;-82
2022/08/04 04:14:58;;;;;;;26.17;15.87;;;21.10;99.90;;;;;;5038363;28;20468;-82
2022/08/04 04:17:56;;;;;;;19.10;14.80;;;21.20;99.90;;;;;;5044983;28;20524;-81
2022/08/04 04:20:46;;;;;;;16.97;14.30;;;21.30;99.90;;;;;;5042059;28;20470;-81
2022/08/04 04:23:30;;;;;;;22.37;14.40;;;21.30;99.90;;;;;;5046174;28;20452;-80
2022/08/04 04:26:06;;;;;;;21.00;14.10;;;21.40;99.90;;;;;;5045049;28;20993;-79
2022/08/04 04:29:06;;;;;;;20.90;13.97;;;21.50;99.90;;;;;;5047566;28;20908;-80
2022/08/04 04:32:05;;;;;;;18.03;14.00;;;21.60;99.90;;;;;;5036797;28;20510;-81
2022/08/04 04:34:42;;;;;;;16.77;13.40;;;21.70;99.90;;;;;;5028757;28;20477;-82
2022/08/04 04:37:24;;;;;;;14.60;13.03;;;21.80;99.90;;;;;;5044318;28;20485;-83
2022/08/04 04:40:10;;;;;;;17.00;13.63;;;21.90;99.90;;;;;;5044084;28;20454;-81
2022/08/04 04:43:04;;;;;;;21.90;14.57;;;22.00;99.90;;;;;;5045248;28;20451;-84
2022/08/04 04:45:40;;;;;;;20.30;14.10;;;22.10;99.90;;;;;;5043490;28;20549;-82
2022/08/04 04:48:12;;;;;;;18.03;13.23;;;22.20;99.90;;;;;;5034336;28;20455;-82
2022/08/04 04:50:59;;;;;;;18.03;11.90;;;22.20;99.90;;;;;;5037396;28;20521;-82
2022/08/04 04:53:33;;;;;;;14.33;11.73;;;22.30;99.90;;;;;;5036658;28;20444;-82
2022/08/04 04:56:05;;;;;;;16.73;12.27;;;22.70;99.90;;;;;;5031403;28;20455;-81
2022/08/04 04:58:34;;;;;;;13.60;10.37;;;22.80;99.90;;;;;;5040431;28;20510;-83
2022/08/04 05:01:28;;;;;;;22.17;11.57;;;22.80;99.90;;;;;;5037428;28;20446;-82
2022/08/04 05:04:16;;;;;;;17.03;10.53;;;22.90;99.90;;;;;;5038160;28;20475;-82
2022/08/04 05:07:06;;;;;;;15.60;11.50;;;23.20;99.90;;;;;;5043535;28;20498;-80
2022/08/04 05:09:49;;;;;;;13.87;9.47;;;23.60;99.90;;;;;;5043506;28;21024;-82
2022/08/04 05:12:51;;;;;;;18.60;10.50;;;23.90;99.90;;;;;;5038863;28;20485;-81
2022/08/04 05:15:19;;;;;;;16.50;9.93;;;24.40;99.90;;;;;;5034390;28;20872;-79
2022/08/04 05:17:52;;;;;;;14.47;8.93;;;25.00;99.90;;;;;;5039005;28;20690;-80
2022/08/04 05:20:23;;;;;;;14.70;8.83;;;25.20;99.90;;;;;;5037106;28;20453;-78
2022/08/04 05:22:56;;;;;;;17.27;10.67;;;25.10;99.90;;;;;;5034991;28;20525;-81
2022/08/04 05:25:27;;;;;;;13.23;7.70;;;24.90;99.90;;;;;;5038051;28;20475;-78
2022/08/04 05:28:02;;;;;;;20.10;10.03;;;24.80;99.90;;;;;;5039373;28;20450;-80
2022/08/04 05:30:33;;;;;;;8.50;7.00;;;24.70;99.90;;;;;;5041389;28;20854;-79
2022/08/04 05:33:07;;;;;;;14.73;8.10;;;24.60;99.90;;;;;;5039775;28;20451;-82
2022/08/04 05:35:36;;;;;;;9.63;7.30;;;24.50;99.90;;;;;;5039833;28;20490;-82
2022/08/04 05:38:05;;;;;;;12.93;8.30;;;24.50;99.90;;;;;;5041269;28;20574;-83
2022/08/04 05:40:33;;;;;;;11.67;7.60;;;24.40;99.90;;;;;;5038319;28;20459;-81
2022/08/04 05:43:01;;;;;;;10.83;7.20;;;24.40;99.90;;;;;;5031903;28;20432;-79
2022/08/04 05:45:29;;;;;;;14.80;7.63;;;24.50;99.90;;;;;;5041709;28;20518;-78
2022/08/04 05:47:56;;;;;;;10.00;6.20;;;24.70;99.90;;;;;;5042214;28;20447;-80
2022/08/04 05:50:25;;;;;;;11.90;7.13;;;24.90;99.90;;;;;;5043516;28;20469;-80
2022/08/04 05:52:53;;;;;;;11.03;7.97;;;25.20;99.90;;;;;;5042727;28;20499;-79
2022/08/04 05:55:21;;;;;;;9.93;6.63;;;25.40;99.90;;;;;;5043311;28;20476;-81
2022/08/04 05:57:50;;;;;;;16.63;8.10;;;25.70;99.90;;;;;;5044783;28;20493;-81
2022/08/04 06:00:18;;;;;;;10.93;6.60;;;26.30;99.90;;;;;;5034211;28;20478;-81
2022/08/04 06:02:47;;;;;;;14.60;7.63;;;26.70;99.90;;;;;;5035258;28;20444;-79
2022/08/04 06:05:16;;;;;;;10.53;6.93;;;26.80;99.90;;;;;;5042814;28;20709;-80
2022/08/04 06:07:45;;;;;;;12.90;7.07;;;26.90;99.90;;;;;;5042869;28;20447;-82
2022/08/04 06:10:13;;;;;;;12.60;7.60;;;26.90;99.90;;;;;;5042842;28;20542;-81
2022/08/04 06:12:46;;;;;;;11.30;6.67;;;26.70;99.90;;;;;;5043327;28;20506;-81
2022/08/04 06:15:18;;;;;;;13.40;8.53;;;27.10;99.90;;;;;;5053815;28;20478;-79
2022/08/04 06:17:48;;;;;;;18.33;7.33;;;27.50;99.90;;;;;;5055602;28;20493;-79
2022/08/04 06:20:17;;;;;;;12.87;6.50;;;27.70;99.90;;;;;;5053731;28;20495;-79
2022/08/04 06:22:49;;;;;;;9.27;5.50;;;28.20;99.90;;;;;;5053617;28;20462;-78
2022/08/04 06:25:20;;;;;;;11.13;6.60;;;29.20;99.90;;;;;;5053411;28;20487;-80
2022/08/04 06:27:49;;;;;;;10.60;6.90;;;30.40;99.90;;;;;;5057278;28;20427;-81
2022/08/04 06:30:18;;;;;;;9.60;6.27;;;30.50;99.90;;;;;;5056348;28;20466;-78
2022/08/04 06:32:49;;;;;;;9.23;4.90;;;30.90;99.00;;;;;;5047250;28;20485;-80
2022/08/04 06:35:17;;;;;;;9.23;4.90;;;31.00;97.60;;;;;;5049592;28;20459;-79
2022/08/04 06:37:47;;;;;;;11.80;5.93;;;31.10;97.00;;;;;;5051959;28;20466;-80
2022/08/04 06:40:17;;;;;;;11.80;5.53;;;31.10;96.90;;;;;;5053999;28;20440;-80
2022/08/04 06:42:44;;;;;;;9.70;5.60;;;31.00;97.10;;;;;;5050604;28;20443;-79
2022/08/04 06:45:13;;;;;;;11.53;5.60;;;31.10;96.50;;;;;;5053327;28;20477;-79
2022/08/04 06:47:42;;;;;;;9.70;5.10;;;31.10;96.30;;;;;;5055757;28;20451;-79
2022/08/04 06:50:10;;;;;;;9.17;4.97;;;31.10;95.80;;;;;;5047735;28;20506;-80
2022/08/04 06:52:38;;;;;;;5.97;3.80;;;31.40;95.30;;;;;;5042358;28;20478;-81
2022/08/04 06:55:08;;;;;;;11.73;5.20;;;31.60;94.80;;;;;;5037843;28;20475;-80
2022/08/04 06:57:36;;;;;;;7.83;4.90;;;31.90;94.20;;;;;;5040494;28;20542;-80
2022/08/04 07:00:07;;;;;;;8.90;4.90;;;31.70;93.90;;;;;;5039494;28;20522;-80
2022/08/04 07:02:39;;;;;;;9.03;4.33;;;31.60;93.90;;;;;;5039553;28;20520;-81
2022/08/04 07:05:07;;;;;;;5.43;4.00;;;32.00;93.70;;;;;;5041597;28;20470;-79
2022/08/04 07:07:35;;;;;;;9.40;4.97;;;32.00;93.70;;;;;;5039292;28;20495;-82
2022/08/04 07:10:02;;;;;;;15.93;6.17;;;32.00;93.10;;;;;;5045240;28;20455;-82
2022/08/04 07:12:32;;;;;;;13.37;4.87;;;32.10;92.90;;;;;;5046953;28;20455;-81
2022/08/04 07:14:59;;;;;;;9.30;4.50;;;32.60;92.60;;;;;;5043895;28;20950;-80
2022/08/04 07:17:28;;;;;;;7.27;4.53;;;33.30;91.50;;;;;;5045451;28;20925;-79
2022/08/04 07:19:56;;;;;;;8.70;4.00;;;33.90;90.90;;;;;;5043028;28;20450;-79
2022/08/04 07:22:24;;;;;;;7.63;4.80;;;34.30;89.50;;;;;;5047183;28;20725;-79
2022/08/04 07:24:55;;;;;;;13.33;4.33;;;35.20;87.50;;;;;;5045863;28;20475;-83
2022/08/04 07:27:22;;;;;;;13.87;4.70;;;35.60;85.50;;;;;;5041536;28;20435;-81
2022/08/04 07:29:51;;;;;;;7.60;3.93;;;36.00;84.30;;;;;;5042894;28;20506;-81
2022/08/04 07:32:19;;;;;;;9.17;4.47;;;36.20;82.50;;;;;;5035747;28;20450;-81
2022/08/04 07:34:47;;;;;;;9.93;3.50;;;35.80;81.60;;;;;;5029965;28;20559;-80
2022/08/04 07:37:15;;;;;;;9.43;4.50;;;35.70;81.50;;;;;;5042345;28;20478;-80
2022/08/04 07:39:42;;;;;;;6.67;4.17;;;35.70;81.70;;;;;;5037805;28;20475;-80
2022/08/04 07:42:09;;;;;;;10.70;4.33;;;36.30;80.70;;;;;;5043535;28;20446;-80
2022/08/04 07:44:37;;;;;;;11.67;4.20;;;36.80;79.10;;;;;;5042441;28;20574;-82
2022/08/04 07:47:07;;;;;;;8.47;3.53;;;37.00;77.70;;;;;;5042960;28;20527;-82
2022/08/04 07:49:36;;;;;;;5.67;3.87;;;36.50;77.70;;;;;;5045684;28;20435;-81
2022/08/04 07:52:03;;;;;;;8.33;4.50;;;36.10;79.20;;;;;;5047757;28;20457;-82
2022/08/04 07:54:30;;;;;;;7.80;3.50;;;35.90;79.20;;;;;;5047373;28;20474;-80
2022/08/04 07:56:57;;;;;;;4.23;3.20;;;35.80;79.30;;;;;;5049413;28;20470;-80
2022/08/04 07:59:25;;;;;;;7.17;3.20;;;36.20;79.10;;;;;;5050725;28;20543;-80
2022/08/04 08:01:55;;;;;;;9.07;3.67;;;36.50;78.00;;;;;;5043536;28;20447;-81
2022/08/04 08:04:24;;;;;;;7.30;3.30;;;36.70;75.70;;;;;;5050441;28;20509;-82
2022/08/04 08:06:51;;;;;;;5.90;3.60;;;36.80;76.00;;;;;;5048684;28;20450;-80
2022/08/04 08:09:20;;;;;;;9.40;3.90;;;36.80;75.70;;;;;;5048685;28;20450;-81
2022/08/04 08:11:49;;;;;;;11.00;3.20;;;36.90;74.80;;;;;;5047273;28;20466;-80
2022/08/04 08:14:16;;;;;;;5.77;3.40;;;37.20;73.10;;;;;;5051331;28;20546;-81
2022/08/04 08:16:43;;;;;;;5.63;3.50;;;37.10;73.70;;;;;;5049136;28;20538;-81
2022/08/04 08:19:11;;;;;;;6.97;3.50;;;37.00;73.10;;;;;;5040654;28;20483;-83
2022/08/04 08:21:39;;;;;;;7.00;3.03;;;37.40;70.90;;;;;;5040417;28;20979;-80
2022/08/04 08:24:06;;;;;;;7.23;3.93;;;37.10;71.40;;;;;;5034213;28;20524;-81
2022/08/04 08:26:34;;;;;;;7.60;3.80;;;37.30;72.10;;;;;;5049934;28;20434;-78
2022/08/04 08:29:03;;;;;;;7.10;3.07;;;37.10;72.00;;;;;;5056307;28;20506;-80
2022/08/04 08:31:30;;;;;;;15.33;4.00;;;37.20;71.80;;;;;;5055949;28;20485;-79
2022/08/04 08:33:58;;;;;;;9.07;3.60;;;38.00;71.10;;;;;;5050862;28;20494;-80
2022/08/04 08:36:31;;;;;;;5.37;3.70;;;39.10;69.10;;;;;;5044795;28;20440;-80
2022/08/04 08:39:03;;;;;;;5.00;3.00;;;39.60;66.50;;;;;;5045827;28;20547;-79
2022/08/04 08:42:03;;;;;;;8.13;4.10;;;39.60;65.20;;;;;;5047000;28;20436;-82
2022/08/04 08:45:12;;;;;;;9.63;3.40;;;39.30;64.70;;;;;;5053421;28;20530;-80
2022/08/04 08:48:03;;;;;;;5.23;3.03;;;39.60;63.00;;;;;;4938260;28;21286;-80
2022/08/04 08:51:05;;;;;;;12.87;4.13;;;39.90;62.80;;;;;;5050834;28;20642;-83
2022/08/04 08:53:49;;;;;;;4.87;3.20;;;39.70;62.40;;;;;;5049148;28;20506;-81
2022/08/04 08:56:31;;;;;;;6.17;3.40;;;40.30;62.00;;;;;;5049698;28;20435;-79
2022/08/04 08:59:25;;;;;;;5.40;3.63;;;40.80;59.80;;;;;;5041886;28;20503;-81
2022/08/04 09:02:18;;;;;;;13.80;3.20;;;41.50;59.60;;;;;;5045346;28;20454;-79
2022/08/04 09:05:17;;;;;;;6.33;3.47;;;41.30;58.60;;;;;;5048207;28;20554;-82
2022/08/04 09:08:01;;;;;;;4.67;3.10;;;40.40;58.50;;;;;;5002371;28;20482;-82
2022/08/04 09:10:38;;;;;;;3.53;2.90;;;40.00;58.40;;;;;;5046655;28;20461;-80
2022/08/04 09:13:13;;;;;;;5.70;3.00;;;39.50;58.60;;;;;;5047618;28;20518;-80
2022/08/04 09:15:46;;;;;;;4.07;2.67;;;39.00;58.80;;;;;;5048288;28;20482;-80
2022/08/04 09:18:19;;;;;;;7.27;2.90;;;39.40;58.70;;;;;;5044460;28;20459;-81
2022/08/04 09:20:51;;;;;;;6.20;2.60;;;39.60;57.10;;;;;;5047643;28;20458;-79
2022/08/04 09:23:23;;;;;;;5.50;3.30;;;39.10;58.00;;;;;;5046179;28;20462;-80
2022/08/04 09:25:58;;;;;;;4.30;3.40;;;39.50;58.30;;;;;;5035724;28;20460;-79
2022/08/04 09:28:29;;;;;;;8.30;3.30;;;39.80;57.30;;;;;;5048219;28;20481;-81
2022/08/04 09:31:04;;;;;;;3.80;3.33;;;39.90;57.30;;;;;;5043162;28;20454;-81
2022/08/04 09:33:48;;;;;;;7.30;4.27;;;39.90;56.90;;;;;;5044596;28;20493;-81
2022/08/04 09:36:27;;;;;;;5.73;3.07;;;39.90;56.80;;;;;;5042275;28;20877;-80
2022/08/04 09:39:03;;;;;;;3.80;2.40;;;40.50;56.50;;;;;;5039289;28;20506;-80
2022/08/04 09:41:39;;;;;;;8.63;4.00;;;40.60;55.20;;;;;;5045952;28;20450;-81
2022/08/04 09:44:20;;;;;;;8.33;4.50;;;40.50;55.00;;;;;;5038684;28;20474;-84
2022/08/04 09:46:53;;;;;;;5.23;2.93;;;40.40;56.20;;;;;;5043205;28;20447;-80
2022/08/04 09:49:27;;;;;;;5.33;3.57;;;40.80;55.20;;;;;;5046634;28;20481;-82
2022/08/04 09:52:02;;;;;;;5.77;2.80;;;41.30;54.30;;;;;;5044252;28;20434;-80
2022/08/04 09:54:44;;;;;;;6.27;2.67;;;41.40;53.30;;;;;;5038566;28;20906;-80
2022/08/04 09:57:16;;;;;;;5.70;3.07;;;41.80;52.00;;;;;;5042743;28;20447;-82
2022/08/04 09:59:53;;;;;;;7.13;5.07;;;41.10;51.40;;;;;;5041923;28;20664;-82
2022/08/04 10:02:24;;;;;;;4.03;3.00;;;41.20;51.50;;;;;;5039880;28;20526;-79
2022/08/04 10:04:53;;;;;;;9.90;4.30;;;41.30;51.50;;;;;;5046269;28;20473;-81
2022/08/04 10:07:41;;;;;;;3.77;3.27;;;41.10;50.60;;;;;;5039584;28;20484;-81
2022/08/04 10:10:32;;;;;;;9.10;3.27;;;41.10;51.30;;;;;;5039393;28;20451;-81
2022/08/04 10:13:21;;;;;;;6.87;3.57;;;41.40;51.10;;;;;;5039359;28;20455;-80
2022/08/04 10:16:00;;;;;;;3.63;3.20;;;40.60;50.60;;;;;;5039734;28;20471;-80
2022/08/04 10:18:40;;;;;;;4.67;3.50;;;39.90;52.30;;;;;;5037103;28;20525;-80
2022/08/04 10:21:19;;;;;;;4.30;3.90;;;40.40;52.10;;;;;;5040566;28;20470;-82
2022/08/04 10:24:01;;;;;;;4.40;2.93;;;40.80;52.20;;;;;;5048541;28;20434;-81
2022/08/04 10:26:34;;;;;;;3.60;3.30;;;40.90;49.70;;;;;;5047584;28;20514;-80
2022/08/04 10:29:05;;;;;;;3.67;2.87;;;40.50;49.40;;;;;;5045439;28;20466;-79
2022/08/04 10:31:39;;;;;;;3.80;3.00;;;40.60;49.80;;;;;;5054726;28;20459;-80
2022/08/04 10:34:11;;;;;;;3.67;3.00;;;40.50;50.20;;;;;;5054759;28;20519;-85
2022/08/04 10:36:59;;;;;;;5.10;2.67;;;40.10;49.80;;;;;;5054987;28;20457;-77
2022/08/04 10:39:40;;;;;;;7.50;4.20;;;40.20;49.50;;;;;;5054071;28;20426;-79
2022/08/04 10:42:15;;;;;;;3.83;3.40;;;40.50;50.70;;;;;;5050532;28;20470;-80
2022/08/04 10:44:55;;;;;;;3.30;3.00;;;40.70;48.60;;;;;;5044996;28;20466;-81
2022/08/04 10:47:31;;;;;;;6.33;2.77;;;40.50;48.50;;;;;;5048798;28;20487;-79
2022/08/04 10:50:01;;;;;;;3.10;2.80;;;39.90;48.20;;;;;;5043798;28;20546;-82
2022/08/04 10:52:33;;;;;;;5.87;3.10;;;38.80;48.00;;;;;;5046311;28;20463;-80
2022/08/04 10:55:08;;;;;;;5.63;3.77;;;38.60;49.60;;;;;;5044119;28;20546;-80
2022/08/04 10:57:39;;;;;;;3.83;3.53;;;38.20;50.70;;;;;;5039059;28;20446;-79
2022/08/04 11:00:09;;;;;;;5.33;3.10;;;37.90;50.90;;;;;;5042382;28;20474;-79
2022/08/04 11:02:46;;;;;;;9.47;3.47;;;37.70;51.80;;;;;;5042341;28;20899;-80
2022/08/04 11:05:22;;;;;;;3.20;2.90;;;37.90;52.40;;;;;;5042318;28;20492;-80
2022/08/04 11:08:06;;;;;;;4.50;3.20;;;38.10;52.30;;;;;;5044111;28;20442;-81
2022/08/04 11:10:37;;;;;;;3.77;2.93;;;38.00;51.40;;;;;;5034049;28;20446;-83
2022/08/04 11:13:10;;;;;;;3.10;2.80;;;37.60;52.00;;;;;;5043173;28;21014;-79
2022/08/04 11:15:40;;;;;;;9.33;3.13;;;37.40;52.30;;;;;;5034886;28;20478;-79
2022/08/04 11:18:13;;;;;;;8.57;3.00;;;37.50;52.80;;;;;;5046164;28;20423;-80
2022/08/04 11:20:46;;;;;;;6.07;3.20;;;37.50;53.20;;;;;;5043794;28;20467;-82
2022/08/04 11:23:16;;;;;;;3.27;2.97;;;37.50;53.40;;;;;;5046005;28;20455;-82
2022/08/04 11:25:51;;;;;;;4.13;3.10;;;37.50;53.40;;;;;;5042012;28;20852;-83
2022/08/04 11:28:26;;;;;;;5.33;3.23;;;37.70;53.60;;;;;;5040604;28;20546;-80
2022/08/04 11:30:57;;;;;;;4.07;3.07;;;37.40;54.50;;;;;;5042592;28;20451;-81
2022/08/04 11:33:36;;;;;;;4.87;2.87;;;37.30;54.10;;;;;;5038953;28;20454;-80
2022/08/04 11:36:09;;;;;;;5.00;2.90;;;37.40;53.60;;;;;;5036422;28;20446;-80
2022/08/04 11:38:44;;;;;;;2.70;2.50;;;37.30;54.50;;;;;;5031039;28;20545;-80
2022/08/04 11:41:28;;;;;;;7.03;3.27;;;37.30;53.70;;;;;;5035680;28;20449;-79
2022/08/04 11:43:57;;;;;;;4.97;3.53;;;37.30;54.60;;;;;;5048472;28;20507;-80
2022/08/04 11:46:27;;;;;;;5.60;3.73;;;37.20;54.70;;;;;;5048093;28;20445;-81
2022/08/04 11:49:03;;;;;;;2.83;2.63;;;37.20;55.10;;;;;;5048650;28;20570;-81
2022/08/04 11:51:32;;;;;;;19.63;3.37;;;36.90;54.60;;;;;;5047305;28;20485;-81
2022/08/04 11:54:00;;;;;;;4.17;3.03;;;36.70;54.70;;;;;;5048477;28;20925;-79
2022/08/04 11:56:28;;;;;;;4.93;3.10;;;36.60;55.00;;;;;;5047307;28;20447;-80
2022/08/04 11:58:57;;;;;;;3.50;3.20;;;36.50;55.10;;;;;;5046205;28;20485;-80
2022/08/04 12:01:34;;;;;;;3.20;2.60;;;36.30;55.40;;;;;;5047467;28;20470;-81
2022/08/04 12:04:12;;;;;;;5.30;2.70;;;36.50;55.60;;;;;;5034122;28;20463;-80
2022/08/04 12:06:45;;;;;;;2.80;2.60;;;36.80;56.30;;;;;;5041553;28;20534;-79
2022/08/04 12:09:22;;;;;;;10.20;2.90;;;36.80;55.80;;;;;;5042818;28;20486;-79
2022/08/04 12:12:07;;;;;;;5.30;2.87;;;36.70;55.10;;;;;;5036171;28;20447;-79
2022/08/04 12:14:47;;;;;;;4.03;2.90;;;36.40;54.70;;;;;;5042096;28;20473;-80
2022/08/04 12:17:21;;;;;;;9.90;3.07;;;36.10;55.20;;;;;;5041334;28;20447;-81
2022/08/04 12:19:51;;;;;;;4.43;2.77;;;36.10;55.90;;;;;;5043346;28;20653;-80
2022/08/04 12:22:22;;;;;;;3.93;2.93;;;36.00;55.90;;;;;;5046867;28;20471;-79
2022/08/04 12:24:53;;;;;;;4.93;2.80;;;36.20;56.20;;;;;;5039659;28;20491;-79
2022/08/04 12:27:25;;;;;;;10.10;2.53;;;36.00;56.00;;;;;;5042804;28;20499;-80
2022/08/04 12:29:53;;;;;;;3.70;3.20;;;35.90;55.40;;;;;;5042427;28;20551;-79
2022/08/04 12:32:25;;;;;;;3.50;2.80;;;36.00;54.70;;;;;;5046201;28;20810;-80
2022/08/04 12:35:07;;;;;;;2.90;2.27;;;36.20;54.40;;;;;;5042619;28;20833;-80
2022/08/04 12:37:43;;;;;;;2.60;2.27;;;36.20;53.50;;;;;;5038720;28;20458;-79
2022/08/04 12:40:16;;;;;;;6.03;1.77;;;36.20;53.80;;;;;;5045111;28;20554;-79
2022/08/04 12:42:50;;;;;;;2.90;2.37;;;36.30;52.90;;;;;;5044341;28;20451;-79
2022/08/04 12:45:18;;;;;;;3.43;2.33;;;36.30;53.30;;;;;;5056717;28;20491;-79
2022/08/04 12:47:46;;;;;;;2.47;2.00;;;36.30;53.50;;;;;;5055192;28;20486;-79
2022/08/04 12:50:17;;;;;;;4.33;3.50;;;36.10;52.00;;;;;;5049230;28;20521;-78
2022/08/04 12:52:48;;;;;;;3.80;2.10;;;36.20;53.00;;;;;;5049716;28;20471;-79
2022/08/04 12:55:16;;;;;;;4.60;2.60;;;36.30;54.00;;;;;;5040280;28;20554;-78
2022/08/04 12:57:44;;;;;;;2.30;2.10;;;36.20;54.00;;;;;;5044644;28;20944;-79
2022/08/04 13:00:22;;;;;;;2.73;2.30;;;36.00;53.80;;;;;;5041526;28;20475;-79
2022/08/04 13:02:50;;;;;;;3.63;2.47;;;36.00;53.20;;;;;;5044435;28;20985;-79
2022/08/04 13:05:21;;;;;;;2.30;2.10;;;36.00;53.30;;;;;;5043768;28;20535;-78
2022/08/04 13:07:51;;;;;;;3.80;2.70;;;36.00;53.40;;;;;;5039481;28;20523;-79
2022/08/04 13:10:22;;;;;;;3.90;1.90;;;36.10;51.90;;;;;;5040886;28;20490;-79
2022/08/04 13:12:55;;;;;;;2.60;2.40;;;36.10;51.30;;;;;;5037341;28;21109;-81
2022/08/04 13:15:23;;;;;;;3.07;1.87;;;35.80;51.10;;;;;;5047959;28;20731;-81
2022/08/04 13:17:53;;;;;;;3.27;2.40;;;35.60;50.70;;;;;;5056376;28;20450;-81
2022/08/04 13:20:27;;;;;;;3.47;2.07;;;35.70;51.00;;;;;;5055684;28;20423;-81
2022/08/04 13:23:00;;;;;;;5.43;2.07;;;35.80;51.70;;;;;;5055906;28;20474;-80
2022/08/04 13:25:29;;;;;;;4.03;2.37;;;35.80;52.80;;;;;;5056115;28;20463;-81